Airfield :
LOGIN :

Register | Disclaimer

   EN    FR    IT 

 










Legend :    VFR   Marginal VFR   IFR   Intensive IFR   Very Intensive IFR
Visi :
Ceiling :
>= 8 km
>= 3000ft
5 to 8 km
1000 to 3000 ft
1500m to 5 km
500 to 1000 ft
800 to 1500m
200 to 500 ft
< 800m
< 200 ft
Symbols :   Thunderstorms  Fog  Heavy snow  Heavy precipitations  Wind > 20 kt
SIGMETs :     Misc.  Thunderstorms  Icing  Turbulence  Mountain Waves  Volcanic Ashes






- Airport Elevation : 1895 ft


LSMM - Meiringen

CURRENT METAR :
  • 032250Z AUTO VRB01KT 7000NDV RA SCT004 BKN025 BKN046 11/10 Q1015 RMK

EXPIRED METARs :
  • 032220Z AUTO 06003KT 6000NDV RA SCT002 BKN042 OVC051 11/11 Q1015 RMK
  • 032150Z AUTO VRB02KT 6000NDV RA FEW003 SCT044 OVC056 11/11 Q1015 RMK
  • 032120Z AUTO 00000KT 9999NDV -RA FEW003 SCT006 OVC035 11/11 Q1015 RMK
  • 032050Z AUTO 00000KT 9999NDV -RA FEW032 OVC056 12/11 Q1015 RMK
  • 032020Z AUTO 00000KT 9999NDV -RA BKN027 OVC058 12/11 Q1015 RERA RMK

Expired Forecast.



MET'MAP, your aeronautical weather chart ! - Copyright ORBIFLY December 2007 - Disclaimer

ORBIFLY MET'MAP TEAM :

Programming & Development : Alexandra Zaïnal
Concept & original design : Baudouin d'Aumeries
Assistance for programming : Marc-Olivier Méhu
Technical & hardware support : Manuel Goepfert

Contact : metmap@orbifly.com




SOURCES & CREDITS :

   NOAA